createdAt,value
2022-07-29T00:00:30.328Z,13.50
2022-07-29T00:05:32.301Z,10.43
2022-07-29T00:10:34.337Z,5.90
2022-07-29T00:15:36.313Z,7.10
2022-07-29T00:20:38.146Z,7.53
2022-07-29T00:25:40.042Z,8.85
2022-07-29T00:30:44.262Z,7.95
2022-07-29T00:35:46.107Z,6.03
2022-07-29T00:40:48.597Z,7.88
2022-07-29T00:45:50.499Z,9.10
2022-07-29T00:50:52.634Z,5.25
2022-07-29T00:55:56.180Z,8.50
2022-07-29T01:00:59.212Z,5.65
2022-07-29T01:06:01.567Z,6.20
2022-07-29T01:11:04.039Z,6.00
2022-07-29T01:16:14.300Z,3.10
2022-07-29T01:21:34.438Z,6.45
2022-07-29T01:26:50.228Z,4.30
2022-07-29T01:31:59.249Z,4.25
2022-07-29T01:37:16.493Z,3.72
2022-07-29T01:42:36.604Z,9.70
2022-07-29T01:47:44.607Z,3.67
2022-07-29T01:52:57.178Z,3.45
2022-07-29T01:58:01.162Z,4.35
2022-07-29T02:03:10.055Z,4.88
2022-07-29T02:08:14.419Z,6.15
2022-07-29T02:13:19.823Z,11.40
2022-07-29T02:18:25.197Z,9.57
2022-07-29T02:23:27.762Z,12.18
2022-07-29T02:28:31.136Z,12.27
2022-07-29T02:33:34.381Z,13.52
2022-07-29T02:38:52.763Z,34.88
2022-07-29T02:43:58.331Z,17.02
2022-07-29T02:49:24.984Z,23.02
2022-07-29T02:54:42.231Z,19.52
2022-07-29T02:59:46.622Z,20.55
2022-07-29T03:04:51.582Z,24.15
2022-07-29T03:09:53.971Z,19.83
2022-07-29T03:14:57.607Z,28.60
2022-07-29T03:20:00.513Z,24.15
2022-07-29T03:25:10.291Z,26.20
2022-07-29T03:30:18.374Z,32.30
2022-07-29T03:35:23.846Z,38.05
2022-07-29T03:40:39.061Z,40.35
2022-07-29T03:45:45.525Z,45.70
2022-07-29T03:50:47.480Z,42.80
2022-07-29T03:55:54.440Z,46.88
2022-07-29T04:00:57.565Z,50.15
2022-07-29T04:06:07.547Z,59.75
2022-07-29T04:11:09.407Z,57.08
2022-07-29T04:16:11.295Z,58.85
2022-07-29T04:21:13.130Z,52.70
2022-07-29T04:26:15.028Z,58.08
2022-07-29T04:31:16.956Z,49.30
2022-07-29T04:36:29.255Z,45.70
2022-07-29T04:41:33.426Z,56.75
2022-07-29T04:46:36.424Z,57.72
2022-07-29T04:51:39.106Z,67.85
2022-07-29T04:56:40.947Z,69.60
2022-07-29T05:01:42.954Z,80.50
2022-07-29T05:06:44.935Z,67.65
2022-07-29T05:11:47.087Z,90.57
2022-07-29T05:16:50.567Z,81.22
2022-07-29T05:21:52.557Z,74.63
2022-07-29T05:26:54.406Z,87.72
2022-07-29T05:31:56.243Z,63.83
2022-07-29T05:36:58.909Z,81.30
2022-07-29T05:42:00.745Z,74.95
2022-07-29T05:47:02.565Z,84.53
2022-07-29T05:52:04.788Z,79.38
2022-07-29T05:57:06.865Z,99.70
2022-07-29T06:02:08.791Z,159.07
2022-07-29T06:07:12.416Z,165.98
2022-07-29T06:12:14.378Z,169.70
2022-07-29T06:17:17.507Z,182.85
2022-07-29T06:22:19.541Z,190.73
2022-07-29T06:27:21.380Z,163.90
2022-07-29T06:32:23.417Z,160.05
2022-07-29T06:37:29.278Z,189.43
2022-07-29T06:42:34.209Z,162.95
2022-07-29T06:47:36.804Z,143.93
2022-07-29T06:52:39.871Z,134.15
2022-07-29T06:57:42.136Z,141.63
2022-07-29T07:02:44.041Z,138.63
2022-07-29T07:07:45.924Z,147.45
2022-07-29T07:12:47.721Z,136.98
2022-07-29T07:17:50.433Z,208.43
2022-07-29T07:22:52.266Z,207.98
2022-07-29T07:27:54.131Z,206.77
2022-07-29T07:32:56.509Z,193.35
2022-07-29T07:37:58.671Z,194.93
2022-07-29T07:43:00.518Z,159.25
2022-07-29T07:48:02.384Z,158.35
2022-07-29T07:53:04.317Z,153.98
2022-07-29T07:58:06.134Z,162.98
2022-07-29T08:03:09.805Z,157.73
2022-07-29T08:08:19.507Z,139.52
2022-07-29T08:13:32.511Z,131.15
2022-07-29T08:18:34.631Z,128.88
2022-07-29T08:23:46.101Z,115.32
2022-07-29T08:28:51.903Z,101.60
2022-07-29T08:33:53.837Z,88.72
2022-07-29T08:38:55.887Z,79.47
2022-07-29T08:43:57.929Z,57.88
2022-07-29T08:48:59.902Z,50.70
2022-07-29T08:54:02.239Z,65.43
2022-07-29T08:59:06.159Z,53.05
2022-07-29T09:04:12.512Z,47.42
2022-07-29T09:09:15.534Z,53.70
2022-07-29T09:14:17.497Z,54.25
2022-07-29T09:19:25.696Z,45.13
2022-07-29T09:24:41.269Z,40.45
2022-07-29T09:29:43.270Z,54.42
2022-07-29T09:34:45.169Z,47.85
2022-07-29T09:39:47.236Z,36.95
2022-07-29T09:44:51.379Z,40.75
2022-07-29T09:49:54.891Z,39.45
2022-07-29T09:55:17.917Z,36.30
2022-07-29T10:00:24.010Z,43.78
2022-07-29T10:05:36.207Z,39.50
2022-07-29T10:10:41.439Z,34.47
2022-07-29T10:15:47.408Z,26.27
2022-07-29T10:20:49.869Z,22.42
2022-07-29T10:25:51.808Z,26.65
2022-07-29T10:31:00.333Z,24.92
2022-07-29T10:36:20.421Z,18.48
2022-07-29T10:46:47.478Z,14.43
2022-07-29T10:51:58.790Z,12.15
2022-07-29T10:57:17.799Z,5.20
2022-07-29T11:02:42.131Z,7.50
2022-07-29T11:08:21.034Z,7.75
2022-07-29T11:13:51.216Z,3.50
2022-07-29T11:19:26.293Z,3.33
2022-07-29T11:24:35.845Z,4.28
2022-07-29T11:29:50.653Z,6.85
2022-07-29T11:35:22.326Z,13.63
2022-07-29T11:40:42.608Z,5.45
2022-07-29T11:45:48.150Z,5.72
2022-07-29T11:50:50.874Z,8.52
2022-07-29T12:01:19.669Z,2.90
2022-07-29T12:06:21.568Z,6.35
2022-07-29T12:11:23.806Z,6.10
2022-07-29T12:16:36.184Z,6.32
2022-07-29T12:21:49.436Z,3.50
2022-07-29T12:27:00.743Z,8.63
2022-07-29T12:32:14.513Z,9.20
2022-07-29T12:37:17.578Z,3.13
2022-07-29T12:42:19.476Z,7.60
2022-07-29T12:47:21.749Z,8.52
2022-07-29T12:52:33.510Z,7.38
2022-07-29T12:57:50.625Z,6.60
2022-07-29T13:02:57.661Z,4.43
2022-07-29T13:08:22.058Z,3.33
2022-07-29T13:13:24.601Z,6.30
2022-07-29T13:18:37.348Z,4.95
2022-07-29T13:23:39.629Z,10.07
2022-07-29T13:28:44.286Z,6.18
2022-07-29T13:33:46.278Z,3.40
2022-07-29T13:38:48.323Z,6.30
2022-07-29T13:43:50.223Z,2.65
2022-07-29T13:48:52.480Z,3.03
2022-07-29T13:53:54.393Z,6.82
2022-07-29T13:58:56.458Z,4.75
2022-07-29T14:03:58.552Z,5.82
2022-07-29T14:09:00.479Z,4.93
2022-07-29T14:14:02.605Z,4.57
2022-07-29T14:19:04.850Z,7.93
2022-07-29T14:24:16.209Z,7.65
2022-07-29T14:29:24.027Z,4.43
2022-07-29T14:34:40.666Z,8.27
2022-07-29T14:39:43.384Z,3.33
2022-07-29T14:44:45.419Z,6.00
2022-07-29T14:49:48.896Z,8.85
2022-07-29T14:54:50.781Z,8.48
2022-07-29T14:59:53.360Z,6.07
2022-07-29T15:04:55.266Z,8.90
2022-07-29T15:09:59.714Z,3.38
2022-07-29T15:15:01.748Z,7.95
2022-07-29T15:20:07.143Z,5.53
2022-07-29T15:25:09.543Z,4.68
2022-07-29T15:30:31.445Z,6.85
2022-07-29T15:35:40.610Z,8.95
2022-07-29T15:40:44.360Z,3.65
2022-07-29T15:46:05.160Z,3.75
2022-07-29T15:51:07.064Z,9.30
2022-07-29T15:56:09.081Z,4.75
2022-07-29T16:01:11.498Z,3.08
2022-07-29T16:06:14.236Z,9.00
2022-07-29T16:11:16.852Z,8.13
2022-07-29T16:16:19.183Z,4.65
2022-07-29T16:21:22.912Z,3.42
2022-07-29T16:26:25.531Z,4.68
2022-07-29T16:31:28.320Z,14.98
2022-07-29T16:36:31.105Z,8.05
2022-07-29T16:41:33.281Z,5.78
2022-07-29T16:46:39.029Z,6.22
2022-07-29T16:51:44.015Z,6.53
2022-07-29T16:56:46.181Z,7.30
2022-07-29T17:01:48.368Z,16.75
2022-07-29T17:06:50.876Z,8.10
2022-07-29T17:11:55.107Z,9.30
2022-07-29T17:17:03.032Z,14.50
2022-07-29T17:22:12.951Z,16.58
2022-07-29T17:27:20.830Z,10.90
2022-07-29T17:32:23.105Z,16.00
2022-07-29T17:37:25.089Z,14.30
2022-07-29T17:42:27.254Z,12.25
2022-07-29T17:47:29.456Z,13.43
2022-07-29T17:52:31.689Z,10.27
2022-07-29T17:57:34.415Z,13.23
2022-07-29T18:02:37.745Z,13.75
2022-07-29T18:07:39.802Z,10.02
2022-07-29T18:12:47.786Z,8.98
2022-07-29T18:17:56.988Z,12.23
2022-07-29T18:23:00.452Z,8.13
2022-07-29T18:28:04.652Z,7.30
2022-07-29T18:33:21.742Z,9.98
2022-07-29T18:38:24.108Z,9.35
2022-07-29T18:43:26.355Z,8.07
2022-07-29T18:48:28.259Z,6.13
2022-07-29T18:53:30.156Z,6.68
2022-07-29T18:58:33.470Z,5.63
2022-07-29T19:03:35.487Z,5.90
2022-07-29T19:08:37.364Z,10.80
2022-07-29T19:13:39.308Z,6.70
2022-07-29T19:18:41.855Z,7.97
2022-07-29T19:24:05.806Z,3.58
2022-07-29T19:29:07.287Z,5.63
2022-07-29T19:34:09.559Z,4.68
2022-07-29T19:39:11.773Z,3.83
2022-07-29T19:44:13.938Z,9.13
2022-07-29T19:49:16.331Z,11.50
2022-07-29T19:54:18.373Z,12.95
2022-07-29T19:59:24.599Z,5.22
2022-07-29T20:04:27.513Z,14.65
2022-07-29T20:09:29.406Z,7.35
2022-07-29T20:14:31.644Z,9.68
2022-07-29T20:19:33.900Z,11.60
2022-07-29T20:24:35.835Z,10.10
2022-07-29T20:29:38.488Z,12.30
2022-07-29T20:34:43.155Z,5.55
2022-07-29T20:39:47.942Z,10.95
2022-07-29T20:44:51.349Z,4.95
2022-07-29T20:49:53.333Z,7.53
2022-07-29T20:54:55.213Z,8.48
2022-07-29T20:59:57.087Z,8.32
2022-07-29T21:04:59.038Z,5.55
2022-07-29T21:10:00.943Z,5.38
2022-07-29T21:15:06.681Z,8.25
2022-07-29T21:20:09.121Z,5.85
2022-07-29T21:25:11.915Z,13.20
2022-07-29T21:30:14.915Z,6.13
2022-07-29T21:35:35.823Z,5.97
2022-07-29T21:40:39.561Z,7.30
2022-07-29T21:45:42.275Z,17.02
2022-07-29T21:50:44.493Z,7.50
2022-07-29T21:55:47.232Z,8.95
2022-07-29T22:00:50.219Z,10.55
2022-07-29T22:05:53.211Z,8.20
2022-07-29T22:10:55.286Z,15.13
2022-07-29T22:15:57.314Z,12.75
2022-07-29T22:20:59.185Z,10.52
2022-07-29T22:26:01.093Z,6.70
2022-07-29T22:31:03.206Z,14.93
2022-07-29T22:36:05.433Z,16.88
2022-07-29T22:41:07.381Z,10.35
2022-07-29T22:46:11.017Z,13.00
2022-07-29T22:51:13.748Z,16.85
2022-07-29T22:56:15.849Z,16.27
2022-07-29T23:01:38.014Z,17.77
2022-07-29T23:06:39.778Z,16.80
2022-07-29T23:11:41.777Z,29.67
2022-07-29T23:16:43.690Z,25.42
2022-07-29T23:21:45.579Z,24.75
2022-07-29T23:26:47.462Z,22.48
2022-07-29T23:31:49.333Z,7.90
2022-07-29T23:36:51.249Z,13.23
2022-07-29T23:41:53.383Z,12.27
2022-07-29T23:46:55.291Z,11.05
2022-07-29T23:51:57.249Z,10.25
2022-07-29T23:56:59.536Z,14.40
